createdAt,value
2018-06-05T00:00:50.345Z,60.15
2018-06-05T00:01:50.250Z,60.79
2018-06-05T00:02:50.253Z,61.12
2018-06-05T00:03:50.248Z,61.21
2018-06-05T00:04:50.256Z,61.34
2018-06-05T00:05:50.288Z,60.91
2018-06-05T00:06:50.242Z,60.68
2018-06-05T00:07:50.247Z,60.89
2018-06-05T00:08:50.245Z,61.87
2018-06-05T00:09:50.300Z,62.26
2018-06-05T00:10:50.249Z,61.35
2018-06-05T00:11:50.235Z,62.89
2018-06-05T00:12:50.258Z,63.38
2018-06-05T00:13:50.318Z,62.15
2018-06-05T00:14:50.265Z,62.2
2018-06-05T00:15:50.270Z,62.6
2018-06-05T00:16:50.254Z,62.49
2018-06-05T00:17:50.283Z,61.59
2018-06-05T00:18:50.293Z,62.08
2018-06-05T00:19:50.274Z,61.75
2018-06-05T00:20:50.260Z,62.22
2018-06-05T00:21:50.274Z,61.72
2018-06-05T00:22:50.252Z,62
2018-06-05T00:23:50.394Z,62.12
2018-06-05T00:24:50.246Z,60.85
2018-06-05T00:25:50.260Z,62.22
2018-06-05T00:26:50.404Z,62.85
2018-06-05T00:27:50.257Z,62.76
2018-06-05T00:28:50.262Z,62.56
2018-06-05T00:29:50.534Z,62.89
2018-06-05T00:30:50.263Z,63.35
2018-06-05T00:31:50.277Z,63.64
2018-06-05T00:32:50.241Z,63.18
2018-06-05T00:33:50.315Z,63.04
2018-06-05T00:34:50.262Z,63.39
2018-06-05T00:35:50.245Z,62.66
2018-06-05T00:36:50.270Z,63.1
2018-06-05T00:37:50.455Z,62.92
2018-06-05T00:38:50.385Z,63.8
2018-06-05T00:39:50.299Z,63.11
2018-06-05T00:40:50.246Z,62.62
2018-06-05T00:41:50.276Z,63.12
2018-06-05T00:42:50.249Z,63.51
2018-06-05T00:43:50.290Z,63.18
2018-06-05T00:44:50.251Z,63.59
2018-06-05T00:45:50.341Z,62.3
2018-06-05T00:46:50.507Z,62.8
2018-06-05T00:47:50.254Z,64.06
2018-06-05T00:48:50.263Z,63.35
2018-06-05T00:49:50.267Z,62.56
2018-06-05T00:50:50.236Z,62.36
2018-06-05T00:51:50.242Z,62.25
2018-06-05T00:52:50.443Z,61.97
2018-06-05T00:53:50.433Z,62.84
2018-06-05T00:54:50.238Z,63.67
2018-06-05T00:55:50.286Z,62.97
2018-06-05T00:56:50.241Z,63.34
2018-06-05T00:57:51.080Z,63.59
2018-06-05T00:58:50.231Z,63
2018-06-05T00:59:50.229Z,63.85
2018-06-05T01:00:50.269Z,63.01
2018-06-05T01:01:50.408Z,63.77
2018-06-05T01:02:50.251Z,63.78
2018-06-05T01:03:50.533Z,63.29
2018-06-05T01:04:50.236Z,63.96
2018-06-05T01:05:50.307Z,63.37
2018-06-05T01:06:50.261Z,63.6
2018-06-05T01:07:50.536Z,64.68
2018-06-05T01:08:50.913Z,64.75
2018-06-05T01:09:50.229Z,64.67
2018-06-05T01:10:50.278Z,64.94
2018-06-05T01:11:50.216Z,64.41
2018-06-05T01:12:50.245Z,64.39
2018-06-05T01:13:50.445Z,64.11
2018-06-05T01:14:50.235Z,63.96
2018-06-05T01:15:50.228Z,64.47
2018-06-05T01:16:50.256Z,64
2018-06-05T01:17:51.566Z,64.8
2018-06-05T01:18:50.239Z,64.52
2018-06-05T01:19:50.220Z,63.78
2018-06-05T01:20:50.257Z,64.2
2018-06-05T01:21:50.270Z,63.86
2018-06-05T01:22:50.314Z,64.37
2018-06-05T01:23:50.372Z,64.93
2018-06-05T01:24:50.239Z,64.61
2018-06-05T01:25:50.264Z,64.62
2018-06-05T01:26:50.244Z,64.37
2018-06-05T01:27:50.219Z,64.57
2018-06-05T01:28:50.226Z,64.58
2018-06-05T01:29:50.237Z,64.56
2018-06-05T01:30:50.278Z,63.77
2018-06-05T01:31:50.297Z,64.35
2018-06-05T01:32:50.255Z,63.68
2018-06-05T01:33:50.221Z,63.35
2018-06-05T01:34:50.212Z,64.69
2018-06-05T01:35:50.229Z,64.74
2018-06-05T01:36:50.232Z,64.96
2018-06-05T01:37:50.241Z,64.71
2018-06-05T01:38:50.265Z,64.83
2018-06-05T01:39:50.231Z,64.73
2018-06-05T01:40:50.235Z,64.36
2018-06-05T01:41:50.365Z,64.69
2018-06-05T01:42:50.245Z,64.71
2018-06-05T01:43:50.332Z,64.27
2018-06-05T01:44:50.237Z,64.75
2018-06-05T01:45:50.394Z,64.41
2018-06-05T01:46:50.240Z,63.93
2018-06-05T01:47:50.228Z,64.49
2018-06-05T01:48:50.264Z,64.12
2018-06-05T01:49:50.340Z,63.65
2018-06-05T01:50:50.250Z,63.71
2018-06-05T01:51:50.265Z,63.23
2018-06-05T01:52:50.255Z,64.29
2018-06-05T01:53:50.227Z,64.45
2018-06-05T01:54:50.230Z,64.34
2018-06-05T01:55:50.230Z,64.27
2018-06-05T01:56:50.244Z,64.69
2018-06-05T01:57:50.247Z,64.41
2018-06-05T01:58:50.282Z,64.72
2018-06-05T01:59:50.240Z,64.8
2018-06-05T02:00:50.272Z,64.32
2018-06-05T02:01:50.211Z,64.65
2018-06-05T02:02:50.200Z,65.16
2018-06-05T02:03:50.328Z,64.94
2018-06-05T02:04:50.234Z,64.14
2018-06-05T02:05:50.243Z,64.68
2018-06-05T02:06:50.284Z,65.81
2018-06-05T02:07:50.240Z,66.2
2018-06-05T02:08:50.231Z,65.95
2018-06-05T02:09:50.268Z,65.58
2018-06-05T02:10:50.319Z,65.09
2018-06-05T02:11:50.223Z,65.91
2018-06-05T02:12:50.228Z,65.85
2018-06-05T02:13:50.203Z,65.63
2018-06-05T02:14:50.211Z,65.34
2018-06-05T02:15:50.226Z,65.27
2018-06-05T02:16:50.252Z,65.53
2018-06-05T02:17:50.221Z,65.05
2018-06-05T02:18:50.223Z,65.47
2018-06-05T02:19:50.239Z,65.7
2018-06-05T02:20:50.211Z,65.9
2018-06-05T02:21:50.211Z,64.83
2018-06-05T02:22:50.217Z,65.56
2018-06-05T02:23:50.221Z,65.76
2018-06-05T02:24:50.217Z,66.1
2018-06-05T02:25:50.220Z,65.65
2018-06-05T02:26:50.228Z,65.57
2018-06-05T02:27:50.222Z,65.81
2018-06-05T02:28:50.221Z,65.65
2018-06-05T02:29:50.211Z,66.11
2018-06-05T02:30:50.234Z,65.68
2018-06-05T02:31:50.206Z,65.75
2018-06-05T02:32:50.240Z,65.28
2018-06-05T02:33:50.270Z,66.77
2018-06-05T02:34:50.227Z,66.52
2018-06-05T02:35:50.211Z,65.98
2018-06-05T02:36:50.293Z,66.17
2018-06-05T02:37:50.240Z,66.88
2018-06-05T02:38:50.370Z,66.73
2018-06-05T02:39:50.227Z,66.21
2018-06-05T02:40:50.229Z,66.47
2018-06-05T02:41:50.313Z,66.48
2018-06-05T02:42:50.278Z,65.67
2018-06-05T02:43:50.206Z,67.02
2018-06-05T02:44:50.212Z,66.75
2018-06-05T02:45:50.209Z,66.7
2018-06-05T02:46:50.216Z,67.24
2018-06-05T02:47:50.221Z,67.67
2018-06-05T02:48:50.342Z,67.57
2018-06-05T02:49:50.236Z,67.02
2018-06-05T02:50:50.247Z,67.22
2018-06-05T02:51:50.219Z,67.88
2018-06-05T02:52:50.631Z,67.7
2018-06-05T02:53:50.222Z,67.71
2018-06-05T02:54:50.241Z,68.06
2018-06-05T02:55:50.239Z,67.19
2018-06-05T02:56:50.221Z,67.59
2018-06-05T02:57:50.242Z,67.48
2018-06-05T02:58:50.272Z,67.46
2018-06-05T02:59:50.201Z,67.19
2018-06-05T03:00:50.261Z,67.95
2018-06-05T03:01:50.211Z,68.09
2018-06-05T03:02:50.218Z,67.93
2018-06-05T03:03:50.265Z,68.14
2018-06-05T03:04:50.214Z,68.07
2018-06-05T03:05:50.586Z,68.1
2018-06-05T03:06:50.211Z,67.95
2018-06-05T03:07:50.387Z,67.71
2018-06-05T03:08:50.213Z,67.97
2018-06-05T03:09:50.218Z,67.53
2018-06-05T03:10:50.306Z,68.46
2018-06-05T03:11:50.236Z,68.7
2018-06-05T03:12:50.232Z,68.21
2018-06-05T03:13:50.242Z,68.16
2018-06-05T03:14:50.218Z,68.64
2018-06-05T03:15:50.227Z,68.48
2018-06-05T03:16:50.349Z,68.16
2018-06-05T03:17:50.364Z,67.92
2018-06-05T03:18:50.200Z,68.88
2018-06-05T03:19:50.210Z,68.45
2018-06-05T03:20:50.207Z,68.34
2018-06-05T03:21:50.493Z,68.63
2018-06-05T03:22:50.219Z,68.95
2018-06-05T03:23:50.369Z,68.56
2018-06-05T03:24:50.239Z,69.02
2018-06-05T03:25:50.193Z,69.21
2018-06-05T03:26:50.221Z,69
2018-06-05T03:27:50.208Z,69.36
2018-06-05T03:28:50.229Z,69.6
2018-06-05T03:29:50.182Z,69.17
2018-06-05T03:30:50.240Z,69.8
2018-06-05T03:31:50.245Z,69.49
2018-06-05T03:32:50.273Z,69.66
2018-06-05T03:33:50.196Z,69.81
2018-06-05T03:34:50.212Z,69.64
2018-06-05T03:35:50.228Z,69.52
2018-06-05T03:36:50.215Z,69.91
2018-06-05T03:37:50.215Z,69.89
2018-06-05T03:38:50.209Z,69.88
2018-06-05T03:39:50.198Z,70.09
2018-06-05T03:40:50.365Z,70.43
2018-06-05T03:41:50.304Z,70.03
2018-06-05T03:42:50.202Z,69.61
2018-06-05T03:43:50.268Z,69.83
2018-06-05T03:44:50.203Z,69.96
2018-06-05T03:45:50.207Z,70.06
2018-06-05T03:46:50.247Z,70.1
2018-06-05T03:47:50.227Z,70.15
2018-06-05T03:48:50.202Z,69.45
2018-06-05T03:49:50.180Z,69.86
2018-06-05T03:50:50.187Z,68.83
2018-06-05T03:51:50.208Z,69.85
2018-06-05T03:52:50.227Z,70.02
2018-06-05T03:53:50.222Z,69.06
2018-06-05T03:54:50.210Z,68.64
2018-06-05T03:55:50.196Z,69.23
2018-06-05T03:56:50.195Z,69.59
2018-06-05T03:57:50.263Z,71.02
2018-06-05T03:58:50.210Z,71.05
2018-06-05T03:59:50.182Z,71.36
2018-06-05T04:00:50.217Z,70.98
2018-06-05T04:01:50.265Z,70.55
2018-06-05T04:02:50.225Z,70.24
2018-06-05T04:03:50.232Z,71.13
2018-06-05T04:04:50.196Z,71.08
2018-06-05T04:05:50.203Z,70.52
2018-06-05T04:06:50.240Z,70.89
2018-06-05T04:07:50.226Z,71.37
2018-06-05T04:08:50.212Z,71.66
2018-06-05T04:09:50.180Z,71.75
2018-06-05T04:10:50.217Z,71.76
2018-06-05T04:11:50.237Z,71.32
2018-06-05T04:12:50.231Z,71.62
2018-06-05T04:13:50.355Z,71.72
2018-06-05T04:14:50.170Z,70.58
2018-06-05T04:15:50.195Z,71.15
2018-06-05T04:16:50.231Z,71.48
2018-06-05T04:17:50.196Z,70.88
2018-06-05T04:18:50.418Z,71.43
2018-06-05T04:19:50.331Z,71.46
2018-06-05T04:20:50.275Z,71.06
2018-06-05T04:21:50.180Z,71.18
2018-06-05T04:22:50.193Z,71.54
2018-06-05T04:23:50.317Z,70.52
2018-06-05T04:24:50.191Z,70.82
2018-06-05T04:25:50.967Z,71.69
2018-06-05T04:26:50.373Z,71.7
2018-06-05T04:27:50.223Z,71.48
2018-06-05T04:28:50.203Z,71.63
2018-06-05T04:29:50.202Z,71.65
2018-06-05T04:30:50.181Z,71.32
2018-06-05T04:31:50.186Z,71.56
2018-06-05T04:32:50.165Z,71.79
2018-06-05T04:33:50.279Z,72.39
2018-06-05T04:34:50.281Z,71.76
2018-06-05T04:35:50.157Z,72.14
2018-06-05T04:36:50.330Z,72.86
2018-06-05T04:37:50.222Z,72.51
2018-06-05T04:38:50.160Z,72.98
2018-06-05T04:39:50.169Z,72.3
2018-06-05T04:40:50.187Z,72.29
2018-06-05T04:41:50.167Z,72.56
2018-06-05T04:42:50.446Z,73.03
2018-06-05T04:43:50.202Z,73.08
2018-06-05T04:44:50.217Z,73.08
2018-06-05T04:45:50.170Z,72.44
2018-06-05T04:46:50.163Z,72.07
2018-06-05T04:47:50.556Z,72.45
2018-06-05T04:48:50.171Z,73.29
2018-06-05T04:49:50.186Z,72.17
2018-06-05T04:50:50.167Z,73.13
2018-06-05T04:51:50.149Z,73.97
2018-06-05T04:52:50.165Z,74.26
2018-06-05T04:53:50.229Z,74.67
2018-06-05T04:54:50.228Z,74.21
2018-06-05T04:55:50.188Z,74.06
2018-06-05T04:56:50.162Z,73.84
2018-06-05T04:57:50.179Z,73.92
2018-06-05T04:58:50.175Z,74.12
2018-06-05T04:59:50.323Z,73.44
2018-06-05T05:00:50.161Z,73.6
2018-06-05T05:01:50.253Z,73.19
2018-06-05T05:02:50.155Z,72.82
2018-06-05T05:03:50.161Z,73.18
2018-06-05T05:04:50.168Z,74.51
2018-06-05T05:05:50.197Z,75.1
2018-06-05T05:06:50.206Z,75.65
2018-06-05T05:07:50.155Z,75.52
2018-06-05T05:08:50.207Z,75.31
2018-06-05T05:09:50.207Z,74.79
2018-06-05T05:10:50.220Z,73.84
2018-06-05T05:11:50.229Z,73.41
2018-06-05T05:12:50.212Z,74.17
2018-06-05T05:13:50.198Z,74.4
2018-06-05T05:14:50.149Z,73.89
2018-06-05T05:15:50.154Z,74.45
2018-06-05T05:16:50.219Z,74.95
2018-06-05T05:17:50.244Z,75.27
2018-06-05T05:18:50.200Z,75.55
2018-06-05T05:19:50.285Z,75.1
2018-06-05T05:20:50.273Z,75.28
2018-06-05T05:21:50.127Z,75.43
2018-06-05T05:22:50.277Z,75.36
2018-06-05T05:23:50.209Z,75.24
2018-06-05T05:24:50.191Z,74.6
2018-06-05T05:25:50.155Z,75
2018-06-05T05:26:50.144Z,75.29
2018-06-05T05:27:50.151Z,75.31
2018-06-05T05:28:50.166Z,74.89
2018-06-05T05:29:50.159Z,75.07
2018-06-05T05:30:50.340Z,74.3
2018-06-05T05:31:50.166Z,74.2
2018-06-05T05:32:50.138Z,74.17
2018-06-05T05:33:50.329Z,73.99
2018-06-05T05:34:50.346Z,74.34
2018-06-05T05:35:50.276Z,74.46
2018-06-05T05:36:50.203Z,73.76
2018-06-05T05:37:50.166Z,74.26
2018-06-05T05:38:50.211Z,73.79
2018-06-05T05:39:50.141Z,73.37
2018-06-05T05:40:50.156Z,74.5
2018-06-05T05:41:50.172Z,74.73
2018-06-05T05:42:50.172Z,74.4
2018-06-05T05:43:50.142Z,74.68
2018-06-05T05:44:50.200Z,74.89
2018-06-05T05:45:50.172Z,74.54
2018-06-05T05:46:50.128Z,74.83
2018-06-05T05:47:50.198Z,75.07
2018-06-05T05:48:50.175Z,75.31
2018-06-05T05:49:50.126Z,74.53
2018-06-05T05:50:50.145Z,74.84
2018-06-05T05:51:50.124Z,74.51
2018-06-05T05:52:50.195Z,74.42
2018-06-05T05:53:50.166Z,74.76
2018-06-05T05:54:50.418Z,74.86
2018-06-05T05:55:50.138Z,74.98
2018-06-05T05:56:50.159Z,74.92
2018-06-05T05:57:50.184Z,75.14
2018-06-05T05:58:50.173Z,75.27
2018-06-05T05:59:50.151Z,75.18
2018-06-05T06:00:50.159Z,75.03
2018-06-05T06:01:50.243Z,74.74
2018-06-05T06:02:50.232Z,74.97
2018-06-05T06:03:50.400Z,75.11
2018-06-05T06:04:50.154Z,75.24
2018-06-05T06:05:50.150Z,75.1
2018-06-05T06:06:50.211Z,75.11
2018-06-05T06:07:50.156Z,74.88
2018-06-05T06:08:50.130Z,74.2
2018-06-05T06:09:50.305Z,74.22
2018-06-05T06:10:50.316Z,75.22
2018-06-05T06:11:50.170Z,75.07
2018-06-05T06:12:50.185Z,74.98
2018-06-05T06:13:50.160Z,74.27
2018-06-05T06:14:50.143Z,74.51
2018-06-05T06:15:50.151Z,74.15
2018-06-05T06:16:50.182Z,74.44
2018-06-05T06:17:50.169Z,74.8
2018-06-05T06:18:50.125Z,74.48
2018-06-05T06:19:50.161Z,74.33
2018-06-05T06:20:50.130Z,73.44
2018-06-05T06:21:50.128Z,74.04
2018-06-05T06:22:50.138Z,74
2018-06-05T06:23:50.116Z,73.78
2018-06-05T06:24:50.142Z,73.59
2018-06-05T06:25:50.189Z,73.58
2018-06-05T06:26:50.134Z,73.02
2018-06-05T06:27:50.166Z,73.3
2018-06-05T06:28:50.161Z,73.51
2018-06-05T06:29:50.485Z,73.03
2018-06-05T06:30:50.132Z,73.64
2018-06-05T06:31:50.248Z,73.7
2018-06-05T06:32:50.119Z,73.85
2018-06-05T06:33:50.149Z,73.99
2018-06-05T06:34:50.124Z,72.95
2018-06-05T06:35:50.189Z,72.65
2018-06-05T06:36:50.129Z,72.12
2018-06-05T06:37:50.305Z,71.97
2018-06-05T06:38:50.146Z,73.19
2018-06-05T06:39:50.150Z,72.92
2018-06-05T06:40:50.120Z,73.14
2018-06-05T06:41:50.291Z,72.94
2018-06-05T06:42:50.143Z,72.94
2018-06-05T06:43:50.109Z,72.81
2018-06-05T06:44:50.227Z,72.4
2018-06-05T06:45:50.142Z,73.1
2018-06-05T06:46:50.485Z,73.12
2018-06-05T06:47:50.123Z,72.23
2018-06-05T06:48:50.561Z,72.17
2018-06-05T06:49:50.150Z,72.17
2018-06-05T06:50:50.147Z,72.09
2018-06-05T06:51:50.161Z,71.81
2018-06-05T06:52:50.159Z,71.06
2018-06-05T06:53:50.136Z,70.88
2018-06-05T06:54:50.397Z,70.55
2018-06-05T06:55:50.149Z,70.66
2018-06-05T06:56:50.137Z,70.6
2018-06-05T06:57:50.178Z,70.52
2018-06-05T06:58:50.100Z,70.32
2018-06-05T06:59:50.116Z,70.46
2018-06-05T07:00:50.136Z,70.67
2018-06-05T07:01:50.120Z,71.06
2018-06-05T07:02:50.119Z,70.76
2018-06-05T07:03:50.136Z,70.53
2018-06-05T07:04:50.109Z,71.09
2018-06-05T07:05:50.117Z,70.6
2018-06-05T07:06:50.125Z,70.48
2018-06-05T07:07:50.115Z,70.37
2018-06-05T07:08:50.174Z,70.21
2018-06-05T07:09:50.139Z,69.92
2018-06-05T07:10:50.108Z,69.3
2018-06-05T07:11:50.191Z,69.76
2018-06-05T07:12:50.114Z,69.16
2018-06-05T07:13:50.141Z,69.03
2018-06-05T07:14:50.114Z,69.29
2018-06-05T07:15:50.167Z,69.35
2018-06-05T07:16:50.118Z,69.56
2018-06-05T07:17:50.255Z,69.86
2018-06-05T07:18:50.159Z,69.5
2018-06-05T07:19:50.262Z,69.23
2018-06-05T07:20:50.132Z,68.71
2018-06-05T07:21:50.103Z,68.76
2018-06-05T07:22:50.136Z,68.64
2018-06-05T07:23:50.113Z,69
2018-06-05T07:24:50.128Z,68.37
2018-06-05T07:25:50.102Z,68.14
2018-06-05T07:26:50.125Z,68.3
2018-06-05T07:27:50.212Z,68.9
2018-06-05T07:28:50.121Z,68.96
2018-06-05T07:29:50.288Z,68.88
2018-06-05T07:30:50.120Z,68.45
2018-06-05T07:31:50.333Z,68.58
2018-06-05T07:32:50.111Z,68.16
2018-06-05T07:33:50.141Z,67.37
2018-06-05T07:34:50.112Z,67.22
2018-06-05T07:35:50.219Z,67.52
2018-06-05T07:36:50.124Z,67.28
2018-06-05T07:37:50.271Z,67.02
2018-06-05T07:38:50.244Z,66.74
2018-06-05T07:39:50.151Z,67.03
2018-06-05T07:40:50.130Z,67.28
2018-06-05T07:41:50.119Z,67.43
2018-06-05T07:42:50.112Z,67.45
2018-06-05T07:43:50.222Z,67.19
2018-06-05T07:44:50.113Z,67.52
2018-06-05T07:45:50.111Z,67.48
2018-06-05T07:46:50.181Z,66.9
2018-06-05T07:47:50.134Z,66.74
2018-06-05T07:48:50.109Z,67.3
2018-06-05T07:49:50.117Z,67.38
2018-06-05T07:50:50.100Z,67.19
2018-06-05T07:51:50.130Z,66.58
2018-06-05T07:52:50.116Z,66.42
2018-06-05T07:53:50.109Z,66.56
2018-06-05T07:54:50.153Z,66.85
2018-06-05T07:55:50.094Z,67.27
2018-06-05T07:56:50.114Z,67.81
2018-06-05T07:57:50.089Z,67.69
2018-06-05T07:58:50.084Z,66.86
2018-06-05T07:59:50.088Z,66.49
2018-06-05T08:00:50.119Z,67.02
2018-06-05T08:01:50.090Z,65.89
2018-06-05T08:02:50.083Z,65.85
2018-06-05T08:03:50.109Z,65.45
2018-06-05T08:04:50.120Z,65.55
2018-06-05T08:05:50.126Z,65.25
2018-06-05T08:06:50.110Z,64.79
2018-06-05T08:07:50.110Z,64.59
2018-06-05T08:08:50.094Z,65.29
2018-06-05T08:09:50.145Z,63.83
2018-06-05T08:10:50.093Z,63.97
2018-06-05T08:11:50.268Z,64.75
2018-06-05T08:12:50.106Z,65.11
2018-06-05T08:13:50.079Z,64.7
2018-06-05T08:14:50.117Z,64.97
2018-06-05T08:15:50.267Z,64.67
2018-06-05T08:16:50.101Z,65.66
2018-06-05T08:17:50.084Z,65.31
2018-06-05T08:18:50.106Z,64.14
2018-06-05T08:19:50.166Z,63.49
2018-06-05T08:20:50.101Z,62.87
2018-06-05T08:21:50.122Z,63.36
2018-06-05T08:22:50.103Z,63.72
2018-06-05T08:23:50.117Z,64.43
2018-06-05T08:24:50.123Z,63.79
2018-06-05T08:25:50.130Z,63.22
2018-06-05T08:26:50.163Z,63.8
2018-06-05T08:27:50.093Z,64.41
2018-06-05T08:28:50.114Z,64.48
2018-06-05T08:29:50.280Z,63.79
2018-06-05T08:30:50.115Z,63.85
2018-06-05T08:31:50.181Z,63.38
2018-06-05T08:32:50.126Z,63.14
2018-06-05T08:33:53.363Z,63.5
2018-06-05T08:34:51.880Z,62.4
2018-06-05T08:35:50.129Z,62.93
2018-06-05T08:36:50.123Z,63.14
2018-06-05T08:37:50.446Z,62.88
2018-06-05T08:38:50.088Z,61.91
2018-06-05T08:39:50.124Z,61.64
2018-06-05T08:40:50.085Z,61.14
2018-06-05T08:41:50.157Z,61.84
2018-06-05T08:42:50.164Z,61.81
2018-06-05T08:43:50.227Z,61.86
2018-06-05T08:44:50.221Z,63.7
2018-06-05T08:45:50.312Z,63.36
2018-06-05T08:46:50.216Z,62.4
2018-06-05T08:47:50.105Z,63.12
2018-06-05T08:48:50.125Z,62.02
2018-06-05T08:49:50.081Z,61.8
2018-06-05T08:50:50.094Z,61.88
2018-06-05T08:51:50.109Z,61.34
2018-06-05T08:52:50.100Z,61.43
2018-06-05T08:53:50.135Z,61.03
2018-06-05T08:54:50.102Z,62.55
2018-06-05T08:55:50.347Z,61.68
2018-06-05T08:56:50.077Z,61.57
2018-06-05T08:57:50.119Z,60.56
2018-06-05T08:58:50.108Z,60.25
2018-06-05T08:59:50.269Z,60.89
2018-06-05T09:00:50.109Z,60.07
2018-06-05T09:01:50.122Z,60.16
2018-06-05T09:03:00.433Z,59.72
2018-06-05T09:03:50.381Z,59.9
2018-06-05T09:04:50.110Z,60.22
2018-06-05T09:05:50.129Z,60.34
2018-06-05T09:06:50.150Z,60.27
2018-06-05T09:07:50.117Z,60.05
2018-06-05T09:08:50.096Z,60.02
2018-06-05T09:09:50.077Z,59.79
2018-06-05T09:10:50.246Z,59.5
2018-06-05T09:11:50.071Z,60
2018-06-05T09:12:50.348Z,59.48
2018-06-05T09:13:50.102Z,59.12
2018-06-05T09:14:50.094Z,59.59
2018-06-05T09:15:50.072Z,59.71
2018-06-05T09:16:50.090Z,59.49
2018-06-05T09:17:50.082Z,59.89
2018-06-05T09:18:50.125Z,60.24
2018-06-05T09:19:50.060Z,59.91
2018-06-05T09:20:50.078Z,58.38
2018-06-05T09:21:50.106Z,58.16
2018-06-05T09:22:50.079Z,57.52
2018-06-05T09:23:50.068Z,57.67
2018-06-05T09:24:50.084Z,57.65
2018-06-05T09:25:50.071Z,57.59
2018-06-05T09:26:50.555Z,57.43
2018-06-05T09:27:50.111Z,57.85
2018-06-05T09:28:50.128Z,57.98
2018-06-05T09:29:50.192Z,58.22
2018-06-05T09:30:50.066Z,57.89
2018-06-05T09:31:50.170Z,58.23
2018-06-05T09:32:50.107Z,58.1
2018-06-05T09:33:50.067Z,58.3
2018-06-05T09:34:50.086Z,58.76
2018-06-05T09:35:50.081Z,58.11
2018-06-05T09:36:50.098Z,57.31
2018-06-05T09:37:50.364Z,57.82
2018-06-05T09:38:50.089Z,57.92
2018-06-05T09:39:50.084Z,58.16
2018-06-05T09:40:50.058Z,57.8
2018-06-05T09:41:50.072Z,57.82
2018-06-05T09:42:50.254Z,57.59
2018-06-05T09:43:50.081Z,57.65
2018-06-05T09:44:50.099Z,57.64
2018-06-05T09:45:50.162Z,57.88
2018-06-05T09:46:50.341Z,57.86
2018-06-05T09:47:50.148Z,57.58
2018-06-05T09:48:50.089Z,57.8
2018-06-05T09:49:50.121Z,57.86
2018-06-05T09:50:50.100Z,56.84
2018-06-05T09:51:50.061Z,56.95
2018-06-05T09:52:50.073Z,56.96
2018-06-05T09:53:50.065Z,56.5
2018-06-05T09:54:50.190Z,56.41
2018-06-05T09:55:50.086Z,56.84
2018-06-05T09:56:50.073Z,57.64
2018-06-05T09:57:50.655Z,56.73
2018-06-05T09:58:50.147Z,56.47
2018-06-05T09:59:50.131Z,57.3
2018-06-05T10:00:50.128Z,56.41
2018-06-05T10:01:50.102Z,56.49
2018-06-05T10:02:50.051Z,57.01
2018-06-05T10:03:50.355Z,56.53
2018-06-05T10:04:50.164Z,56.7
2018-06-05T10:05:50.050Z,56.44
2018-06-05T10:06:50.115Z,56.96
2018-06-05T10:07:50.059Z,56.01
2018-06-05T10:08:50.093Z,56.28
2018-06-05T10:09:50.088Z,55.79
2018-06-05T10:10:50.104Z,56.39
2018-06-05T10:11:50.165Z,55.68
2018-06-05T10:12:50.068Z,55.91
2018-06-05T10:13:50.457Z,54.66
2018-06-05T10:14:50.133Z,55.41
2018-06-05T10:15:50.089Z,55.35
2018-06-05T10:16:50.042Z,55.13
2018-06-05T10:17:50.039Z,55.32
2018-06-05T10:18:50.059Z,55.41
2018-06-05T10:19:50.054Z,55.64
2018-06-05T10:20:50.077Z,55.18
2018-06-05T10:21:50.038Z,54.4
2018-06-05T10:22:50.033Z,54.71
2018-06-05T10:23:50.074Z,54.95
2018-06-05T10:24:50.063Z,55.91
2018-06-05T10:25:50.086Z,55.87
2018-06-05T10:26:50.089Z,55.25
2018-06-05T10:27:50.289Z,55.92
2018-06-05T10:28:50.078Z,55.16
2018-06-05T10:29:50.145Z,55.15
2018-06-05T10:30:50.071Z,55.36
2018-06-05T10:31:50.088Z,55.41
2018-06-05T10:32:50.104Z,55.05
2018-06-05T10:33:50.079Z,55.68
2018-06-05T10:34:50.336Z,54.8
2018-06-05T10:35:50.105Z,54.51
2018-06-05T10:36:50.047Z,54.39
2018-06-05T10:37:50.076Z,54.33
2018-06-05T10:38:50.032Z,54.28
2018-06-05T10:39:50.039Z,54.27
2018-06-05T10:40:50.073Z,54.14
2018-06-05T10:41:50.066Z,54.27
2018-06-05T10:42:50.055Z,53.85
2018-06-05T10:43:50.058Z,54.17
2018-06-05T10:44:50.072Z,54.13
2018-06-05T10:45:50.060Z,53.62
2018-06-05T10:46:50.072Z,53.16
2018-06-05T10:47:50.028Z,53.47
2018-06-05T10:48:50.716Z,53.2
2018-06-05T10:49:50.016Z,53.53
2018-06-05T10:50:50.156Z,52.99
2018-06-05T10:51:50.042Z,53.45
2018-06-05T10:52:50.059Z,53.56
2018-06-05T10:53:50.106Z,52.91
2018-06-05T10:54:50.069Z,53
2018-06-05T10:55:50.054Z,53.37
2018-06-05T10:56:50.037Z,53.28
2018-06-05T10:57:50.062Z,53.04
2018-06-05T10:58:50.088Z,53.36
2018-06-05T10:59:50.111Z,53.43
2018-06-05T11:00:50.036Z,52.43
2018-06-05T11:01:50.024Z,52.92
2018-06-05T11:02:50.047Z,52.15
2018-06-05T11:03:50.084Z,51.53
2018-06-05T11:04:50.027Z,52.29
2018-06-05T11:05:50.051Z,52.66
2018-06-05T11:06:50.082Z,51.68
2018-06-05T11:07:50.121Z,51.8
2018-06-05T11:08:50.063Z,52.12
2018-06-05T11:09:50.048Z,52.74
2018-06-05T11:10:50.050Z,52.94
2018-06-05T11:11:50.048Z,52.36
2018-06-05T11:12:50.458Z,51.84
2018-06-05T11:13:50.063Z,51.96
2018-06-05T11:14:50.031Z,51.47
2018-06-05T11:15:50.061Z,50.48
2018-06-05T11:16:50.024Z,50.49
2018-06-05T11:17:50.048Z,50.32
2018-06-05T11:18:50.125Z,50.92
2018-06-05T11:19:50.025Z,50.61
2018-06-05T11:20:50.075Z,50.91
2018-06-05T11:21:50.088Z,50.56
2018-06-05T11:22:50.069Z,49.95
2018-06-05T11:23:50.237Z,50.33
2018-06-05T11:24:50.244Z,51.07
2018-06-05T11:25:50.195Z,49.98
2018-06-05T11:26:50.202Z,49.4
2018-06-05T11:27:50.042Z,49.74
2018-06-05T11:28:50.097Z,49.89
2018-06-05T11:29:50.057Z,48.86
2018-06-05T11:30:50.213Z,48.34
2018-06-05T11:31:50.054Z,48.52
2018-06-05T11:32:50.038Z,49.14
2018-06-05T11:33:50.397Z,49.39
2018-06-05T11:34:50.065Z,49.55
2018-06-05T11:35:50.108Z,49.41
2018-06-05T11:36:50.275Z,49.22
2018-06-05T11:37:50.025Z,49.39
2018-06-05T11:38:50.060Z,48.25
2018-06-05T11:39:50.033Z,48.14
2018-06-05T11:40:50.098Z,47.98
2018-06-05T11:41:50.063Z,47.81
2018-06-05T11:42:50.036Z,47.99
2018-06-05T11:43:50.037Z,48.24
2018-06-05T11:44:50.024Z,47.87
2018-06-05T11:45:50.066Z,49.12
2018-06-05T11:46:50.199Z,49.37
2018-06-05T11:47:50.023Z,49.54
2018-06-05T11:48:50.021Z,49.43
2018-06-05T11:49:50.080Z,48.8
2018-06-05T11:50:50.018Z,48.28
2018-06-05T11:51:50.027Z,49.27
2018-06-05T11:52:50.010Z,50.07
2018-06-05T11:53:50.064Z,49.83
2018-06-05T11:54:50.037Z,48.77
2018-06-05T11:55:50.045Z,48.57
2018-06-05T11:56:50.116Z,48.46
2018-06-05T11:57:50.122Z,48.17
2018-06-05T11:58:50.164Z,46.61
2018-06-05T11:59:50.016Z,46.85
2018-06-05T12:00:50.331Z,47.02
2018-06-05T12:01:50.740Z,47.42
2018-06-05T12:02:50.003Z,47.16
2018-06-05T12:03:50.052Z,47.81
2018-06-05T12:04:50.034Z,47.51
2018-06-05T12:05:50.079Z,47.32
2018-06-05T12:06:50.053Z,46.55
2018-06-05T12:07:50.059Z,47.46
2018-06-05T12:08:50.039Z,47.34
2018-06-05T12:09:50.105Z,47.07
2018-06-05T12:10:50.042Z,46.41
2018-06-05T12:11:50.064Z,47.7
2018-06-05T12:12:50.041Z,47.08
2018-06-05T12:13:50.020Z,46.97
2018-06-05T12:14:50.051Z,47.18
2018-06-05T12:15:50.077Z,47.8
2018-06-05T12:16:50.053Z,46.91
2018-06-05T12:17:50.444Z,47.09
2018-06-05T12:18:50.036Z,46.81
2018-06-05T12:19:50.061Z,46
2018-06-05T12:20:50.015Z,46.15
2018-06-05T12:21:50.016Z,46.45
2018-06-05T12:22:50.049Z,46.44
2018-06-05T12:23:50.045Z,47.37
2018-06-05T12:24:50.093Z,47.12
2018-06-05T12:25:50.205Z,47.44
2018-06-05T12:26:50.023Z,47.79
2018-06-05T12:27:50.023Z,47.18
2018-06-05T12:28:50.145Z,46.35
2018-06-05T12:29:50.165Z,46.46
2018-06-05T12:30:50.209Z,46.27
2018-06-05T12:31:50.040Z,46.14
2018-06-05T12:32:50.227Z,46.11
2018-06-05T12:33:50.028Z,46.26
2018-06-05T12:34:50.101Z,46.17
2018-06-05T12:35:50.012Z,46.19
2018-06-05T12:36:50.170Z,46.29
2018-06-05T12:37:50.042Z,46.02
2018-06-05T12:38:50.151Z,46.32
2018-06-05T12:39:50.031Z,46.37
2018-06-05T12:40:50.028Z,46.27
2018-06-05T12:41:50.359Z,46.44
2018-06-05T12:42:50.023Z,46
2018-06-05T12:43:50.039Z,46.15
2018-06-05T12:44:50.035Z,46.32
2018-06-05T12:45:50.009Z,46.77
2018-06-05T12:46:50.020Z,46.88
2018-06-05T12:47:50.046Z,44.69
2018-06-05T12:48:50.020Z,46
2018-06-05T12:49:50.028Z,44.79
2018-06-05T12:50:50.033Z,44.99
2018-06-05T12:51:50.019Z,44.71
2018-06-05T12:52:50.007Z,45.37
2018-06-05T12:53:50.013Z,45.06
2018-06-05T12:54:50.001Z,45.18
2018-06-05T12:55:50.023Z,45.51
2018-06-05T12:56:50.041Z,44.46